Aérodrome :
LOGIN :

S'inscrire | Disclaimer

   EN    FR    IT 

 










Légende :    VFR   VFR Marginal   IFR   IFR Intensif   IFR Très Intensif
Visi : 
Plafond : 
>= 8 km
>= 3000ft
5 à 8 km
1000 à 3000 ft
1500m à 5 km
500 à 1000 ft
800 à 1500m
200 à 500 ft
< 800m
< 200 ft
Symboles :   Orages  Brouillard  Fortes neiges  Fortes précipitations  Vent > 20 kt
SIGMETs :   Divers  Orages  Givrage  Turbulence  Onde Orograph.  Cendres Volcan.






- Altitude de l'aérodrome : 459 ft
- Code IATA : CER


LFRC - Cherbourg / Maupertus

DERNIER METAR :
  • 032000Z AUTO 01005KT 9999 -RA FEW048 BKN074 BKN086 13/12 Q1005

METARs EXPIRÉS :
  • 031930Z AUTO 01005KT 340V040 9000 -RA NSC 13/12 Q1005
  • 031900Z AUTO 36006KT 9000 -RA FEW048/// OVC100/// ///TCU 13/12 Q1005
  • 031830Z AUTO 36007KT 9999 -RA ///TCU 13/12 Q1005
  • 031800Z AUTO 01007KT 9999 ///TCU 14/11 Q1005
  • 031730Z AUTO 36008KT CAVOK 14/11 Q1005

Prévision TAF périmée.



MET'MAP, la Météo Aéronautique d'un coup d'oeil ! - Copyright ORBIFLY Décembre 2007 - Disclaimer

ORBIFLY MET'MAP TEAM :

Programmation & Développement : Alexandra Zaïnal
Sur une idée originale de : Baudouin d'Aumeries
Assistance à la programmation : Marc-Olivier Méhu
Soutien technique & logistique : Manuel Goepfert

Contact : metmap@orbifly.com




SOURCES & CREDITS :

   NOAA